createdAt,value
2022-08-10T00:01:55.075Z,1.00
2022-08-10T00:04:24.971Z,1.00
2022-08-10T00:06:56.626Z,1.00
2022-08-10T00:09:25.565Z,1.00
2022-08-10T00:11:54.005Z,1.00
2022-08-10T00:14:22.451Z,1.00
2022-08-10T00:16:50.942Z,1.00
2022-08-10T00:19:19.580Z,1.00
2022-08-10T00:21:48.823Z,1.00
2022-08-10T00:24:17.473Z,1.00
2022-08-10T00:27:52.201Z,1.00
2022-08-10T00:29:34.534Z,1.00
2022-08-10T00:32:02.932Z,1.00
2022-08-10T00:34:33.025Z,1.00
2022-08-10T00:37:01.708Z,1.00
2022-08-10T00:39:36.162Z,1.00
2022-08-10T00:42:10.470Z,1.00
2022-08-10T00:44:41.928Z,1.00
2022-08-10T00:47:22.738Z,1.00
2022-08-10T00:49:59.979Z,1.00
2022-08-10T00:52:30.127Z,1.00
2022-08-10T00:54:59.915Z,1.00
2022-08-10T00:57:28.875Z,1.00
2022-08-10T00:59:59.137Z,1.00
2022-08-10T01:02:33.391Z,1.00
2022-08-10T01:05:12.196Z,1.00
2022-08-10T01:08:08.035Z,1.00
2022-08-10T01:10:52.760Z,1.00
2022-08-10T01:13:40.054Z,1.00
2022-08-10T01:16:27.196Z,1.00
2022-08-10T01:18:58.658Z,1.00
2022-08-10T01:21:48.050Z,1.00
2022-08-10T01:24:47.596Z,1.00
2022-08-10T01:27:27.478Z,1.00
2022-08-10T01:30:16.595Z,1.00
2022-08-10T01:33:10.995Z,1.00
2022-08-10T01:35:58.689Z,1.00
2022-08-10T01:38:51.201Z,1.00
2022-08-10T01:41:47.350Z,1.00
2022-08-10T01:44:26.248Z,1.00
2022-08-10T01:47:22.274Z,1.00
2022-08-10T01:49:55.041Z,1.00
2022-08-10T01:52:27.341Z,1.00
2022-08-10T01:54:57.678Z,1.00
2022-08-10T01:57:32.585Z,1.00
2022-08-10T02:00:03.556Z,1.00
2022-08-10T02:02:34.902Z,1.00
2022-08-10T02:05:06.272Z,1.00
2022-08-10T02:07:37.889Z,1.00
2022-08-10T02:10:11.868Z,1.00
2022-08-10T02:12:42.571Z,1.00
2022-08-10T02:15:16.873Z,1.00
2022-08-10T02:18:01.957Z,1.00
2022-08-10T02:20:54.389Z,1.00
2022-08-10T02:23:24.850Z,1.00
2022-08-10T02:25:56.330Z,1.00
2022-08-10T02:28:30.824Z,1.00
2022-08-10T02:31:23.237Z,1.00
2022-08-10T02:33:56.651Z,1.00
2022-08-10T02:36:32.883Z,1.00
2022-08-10T02:39:04.605Z,1.00
2022-08-10T02:45:13.341Z,1.00
2022-08-10T02:45:26.599Z,1.00
2022-08-10T02:48:02.520Z,1.00
2022-08-10T02:50:37.661Z,1.00
2022-08-10T02:53:06.000Z,1.00
2022-08-10T02:55:49.748Z,1.00
2022-08-10T02:58:35.939Z,1.00
2022-08-10T03:01:09.992Z,1.00
2022-08-10T03:04:02.023Z,1.00
2022-08-10T03:06:41.031Z,1.00
2022-08-10T03:09:14.765Z,1.00
2022-08-10T03:12:37.805Z,1.00
2022-08-10T03:14:37.199Z,1.00
2022-08-10T03:17:07.671Z,1.00
2022-08-10T03:20:35.614Z,1.00
2022-08-10T03:22:27.486Z,1.00
2022-08-10T03:24:56.479Z,1.00
2022-08-10T03:27:25.790Z,1.00
2022-08-10T03:30:28.172Z,1.00
2022-08-10T03:32:45.048Z,1.00
2022-08-10T03:35:14.428Z,1.00
2022-08-10T03:37:42.990Z,1.00
2022-08-10T03:40:12.031Z,1.00
2022-08-10T03:42:41.752Z,1.00
2022-08-10T03:45:11.480Z,1.00
2022-08-10T03:47:42.479Z,1.00
2022-08-10T03:50:27.497Z,1.00
2022-08-10T03:53:00.488Z,1.00
2022-08-10T03:56:28.878Z,1.00
2022-08-10T03:58:17.533Z,1.00
2022-08-10T04:00:47.973Z,1.00
2022-08-10T04:03:16.600Z,1.00
2022-08-10T04:05:45.571Z,1.00
2022-08-10T04:08:14.962Z,1.00
2022-08-10T04:10:43.314Z,1.00
2022-08-10T04:13:11.799Z,1.00
2022-08-10T04:15:40.576Z,1.00
2022-08-10T04:18:09.054Z,1.00
2022-08-10T04:20:53.597Z,1.00
2022-08-10T04:23:26.419Z,1.00
2022-08-10T04:25:55.376Z,1.00
2022-08-10T04:28:24.400Z,1.00
2022-08-10T04:30:55.003Z,1.00
2022-08-10T04:33:25.355Z,1.00
2022-08-10T04:35:54.484Z,1.00
2022-08-10T04:38:25.805Z,1.00
2022-08-10T04:40:54.607Z,1.00
2022-08-10T04:43:23.043Z,1.00
2022-08-10T04:45:52.023Z,1.00
2022-08-10T04:48:42.658Z,1.00
2022-08-10T04:51:18.897Z,1.00
2022-08-10T04:54:05.578Z,1.00
2022-08-10T04:56:39.825Z,1.00
2022-08-10T04:59:10.806Z,1.00
2022-08-10T05:02:12.284Z,1.00
2022-08-10T05:04:35.285Z,1.00
2022-08-10T05:07:09.995Z,4.10
2022-08-10T05:10:02.556Z,1.50
2022-08-10T05:12:30.966Z,9.90
2022-08-10T05:14:59.453Z,39.20
2022-08-10T05:17:27.892Z,49.10
2022-08-10T05:20:03.646Z,65.20
2022-08-10T05:22:44.813Z,92.70
2022-08-10T05:25:19.423Z,99.90
2022-08-10T05:27:48.835Z,99.90
2022-08-10T05:30:20.914Z,99.90
2022-08-10T05:32:56.362Z,99.90
2022-08-10T05:35:56.342Z,99.90
2022-08-10T05:38:21.967Z,99.90
2022-08-10T05:40:51.696Z,99.90
2022-08-10T05:43:21.895Z,99.90
2022-08-10T05:46:18.349Z,99.90
2022-08-10T05:48:57.254Z,99.90
2022-08-10T05:51:30.050Z,99.90
2022-08-10T05:54:04.860Z,99.90
2022-08-10T05:56:54.799Z,99.90
2022-08-10T06:00:30.847Z,99.90
2022-08-10T06:02:35.411Z,99.90
2022-08-10T06:05:26.826Z,99.90
2022-08-10T06:08:07.303Z,99.90
2022-08-10T06:12:23.599Z,99.90
2022-08-10T06:14:13.456Z,99.90
2022-08-10T06:16:36.261Z,99.90
2022-08-10T06:19:05.185Z,99.90
2022-08-10T06:21:34.245Z,99.90
2022-08-10T06:24:04.377Z,99.90
2022-08-10T06:26:32.805Z,99.90
2022-08-10T06:29:12.044Z,99.90
2022-08-10T06:31:48.321Z,99.90
2022-08-10T06:34:30.682Z,99.90
2022-08-10T06:37:02.210Z,99.90
2022-08-10T06:39:34.044Z,99.90
2022-08-10T06:42:18.092Z,99.90
2022-08-10T06:45:05.790Z,99.90
2022-08-10T06:48:00.382Z,99.90
2022-08-10T06:50:56.390Z,99.90
2022-08-10T06:53:52.409Z,99.90
2022-08-10T06:56:38.158Z,99.90
2022-08-10T06:59:21.951Z,97.00
2022-08-10T07:02:28.299Z,84.20
2022-08-10T07:05:03.256Z,79.00
2022-08-10T07:07:35.712Z,86.10
2022-08-10T07:10:04.585Z,86.90
2022-08-10T07:12:36.172Z,80.80
2022-08-10T07:15:07.483Z,90.50
2022-08-10T07:17:39.732Z,88.80
2022-08-10T07:20:12.931Z,90.70
2022-08-10T07:23:55.455Z,95.40
2022-08-10T07:25:32.075Z,91.70
2022-08-10T07:28:02.354Z,89.50
2022-08-10T07:30:33.884Z,92.70
2022-08-10T07:33:03.541Z,95.80
2022-08-10T07:35:42.499Z,95.30
2022-08-10T07:38:32.993Z,95.40
2022-08-10T07:41:02.903Z,99.70
2022-08-10T07:43:36.847Z,99.90
2022-08-10T07:46:10.668Z,99.60
2022-08-10T07:48:45.077Z,99.90
2022-08-10T07:51:15.737Z,99.90
2022-08-10T07:53:51.079Z,99.90
2022-08-10T07:56:47.442Z,99.90
2022-08-10T07:59:16.264Z,99.80
2022-08-10T08:01:51.236Z,96.40
2022-08-10T08:04:23.099Z,97.20
2022-08-10T08:06:53.655Z,99.10
2022-08-10T08:09:23.110Z,99.80
2022-08-10T08:11:52.693Z,98.70
2022-08-10T08:14:23.043Z,97.50
2022-08-10T08:16:54.290Z,99.30
2022-08-10T08:19:27.799Z,98.00
2022-08-10T08:24:11.140Z,98.80
2022-08-10T08:24:53.928Z,97.00
2022-08-10T08:27:23.856Z,99.90
2022-08-10T08:29:53.569Z,99.90
2022-08-10T08:32:33.234Z,99.90
2022-08-10T08:35:09.780Z,99.90
2022-08-10T08:38:31.461Z,99.90
2022-08-10T08:40:34.287Z,99.90
2022-08-10T08:43:22.831Z,99.90
2022-08-10T08:46:07.183Z,99.90
2022-08-10T08:50:04.769Z,99.90
2022-08-10T08:52:25.138Z,99.90
2022-08-10T08:56:04.992Z,99.90
2022-08-10T08:58:38.292Z,99.90
2022-08-10T09:01:40.564Z,99.30
2022-08-10T09:04:28.773Z,99.00
2022-08-10T09:07:39.310Z,99.90
2022-08-10T09:10:15.891Z,99.70
2022-08-10T09:13:05.986Z,97.40
2022-08-10T09:16:15.002Z,99.10
2022-08-10T09:19:07.817Z,99.70
2022-08-10T09:21:59.132Z,99.90
2022-08-10T09:25:00.376Z,98.80
2022-08-10T09:27:37.450Z,99.40
2022-08-10T09:30:11.491Z,99.30
2022-08-10T09:36:14.149Z,99.90
2022-08-10T09:36:28.905Z,99.00
2022-08-10T09:40:06.691Z,98.60
2022-08-10T09:43:14.531Z,97.90
2022-08-10T09:46:12.117Z,98.10
2022-08-10T09:49:10.194Z,97.10
2022-08-10T09:51:57.985Z,98.60
2022-08-10T09:54:44.848Z,99.00
2022-08-10T10:00:22.498Z,96.70
2022-08-10T10:03:07.176Z,99.20
2022-08-10T10:05:56.874Z,97.50
2022-08-10T10:08:53.664Z,97.10
2022-08-10T10:11:45.148Z,98.40
2022-08-10T10:14:19.507Z,94.90
2022-08-10T10:17:13.522Z,96.30
2022-08-10T10:19:51.951Z,95.80
2022-08-10T10:22:52.927Z,95.50
2022-08-10T10:25:50.030Z,94.20
2022-08-10T10:29:19.577Z,94.00
2022-08-10T10:31:50.946Z,95.40
2022-08-10T10:34:42.310Z,95.90
2022-08-10T10:37:12.549Z,94.20
2022-08-10T10:39:53.334Z,93.90
2022-08-10T10:42:45.331Z,95.40
2022-08-10T10:45:29.185Z,95.30
2022-08-10T10:48:29.369Z,94.30
2022-08-10T10:51:16.570Z,95.50
2022-08-10T10:53:47.988Z,95.20
2022-08-10T10:56:59.159Z,96.60
2022-08-10T10:59:55.508Z,95.00
2022-08-10T11:02:58.736Z,94.20
2022-08-10T11:06:09.492Z,96.00
2022-08-10T11:08:52.094Z,95.50
2022-08-10T11:12:00.171Z,96.70
2022-08-10T11:14:59.650Z,97.20
2022-08-10T11:17:41.613Z,98.20
2022-08-10T11:20:10.184Z,98.40
2022-08-10T11:22:56.790Z,98.30
2022-08-10T11:25:32.624Z,99.00
2022-08-10T11:28:07.139Z,99.90
2022-08-10T11:30:46.151Z,98.70
2022-08-10T11:37:00.736Z,99.10
2022-08-10T11:39:57.132Z,99.00
2022-08-10T11:42:40.530Z,99.90
2022-08-10T11:45:25.179Z,99.00
2022-08-10T11:47:57.900Z,98.10
2022-08-10T11:50:44.348Z,96.80
2022-08-10T11:53:28.185Z,97.30
2022-08-10T11:56:11.856Z,97.00
2022-08-10T11:59:16.629Z,96.90
2022-08-10T12:01:48.081Z,96.30
2022-08-10T12:04:17.403Z,98.80
2022-08-10T12:07:02.108Z,97.70
2022-08-10T12:10:09.526Z,98.00
2022-08-10T12:12:21.842Z,96.50
2022-08-10T12:15:09.849Z,95.00
2022-08-10T12:18:03.513Z,98.60
2022-08-10T12:20:36.905Z,99.80
2022-08-10T12:23:27.535Z,99.90
2022-08-10T12:26:17.524Z,99.60
2022-08-10T12:28:58.896Z,98.90
2022-08-10T12:31:42.284Z,99.00
2022-08-10T12:34:27.134Z,99.80
2022-08-10T12:37:03.977Z,99.90
2022-08-10T12:39:38.207Z,95.10
2022-08-10T12:42:38.769Z,97.10
2022-08-10T12:45:24.784Z,97.40
2022-08-10T12:48:09.368Z,97.00
2022-08-10T12:50:44.873Z,97.30
2022-08-10T12:53:31.462Z,94.80
2022-08-10T12:56:02.477Z,97.80
2022-08-10T12:58:58.688Z,96.80
2022-08-10T13:02:06.175Z,96.90
2022-08-10T13:04:34.501Z,96.50
2022-08-10T13:07:05.196Z,95.80
2022-08-10T13:09:56.218Z,95.80
2022-08-10T13:12:38.433Z,95.60
2022-08-10T13:15:45.101Z,93.80
2022-08-10T13:18:18.150Z,95.50
2022-08-10T13:20:53.765Z,95.50
2022-08-10T13:23:29.935Z,97.50
2022-08-10T13:26:01.882Z,96.40
2022-08-10T13:28:49.699Z,96.00
2022-08-10T13:32:03.386Z,96.80
2022-08-10T13:34:43.542Z,95.40
2022-08-10T13:37:14.854Z,96.90
2022-08-10T13:39:57.885Z,97.20
2022-08-10T13:42:33.782Z,98.90
2022-08-10T13:45:18.933Z,99.90
2022-08-10T13:47:51.854Z,99.90
2022-08-10T13:50:34.969Z,99.90
2022-08-10T13:53:14.460Z,99.90
2022-08-10T13:55:56.728Z,99.00
2022-08-10T13:58:32.768Z,99.90
2022-08-10T14:01:03.994Z,99.90
2022-08-10T14:03:39.103Z,99.90
2022-08-10T14:06:12.972Z,99.90
2022-08-10T14:08:47.087Z,99.90
2022-08-10T14:11:19.149Z,98.50
2022-08-10T14:14:04.451Z,99.90
2022-08-10T14:16:34.324Z,99.00
2022-08-10T14:19:12.570Z,99.90
2022-08-10T14:21:42.361Z,99.90
2022-08-10T14:24:27.321Z,97.80
2022-08-10T14:27:11.283Z,97.00
2022-08-10T14:29:45.326Z,97.10
2022-08-10T14:32:17.296Z,95.10
2022-08-10T14:36:15.346Z,94.00
2022-08-10T14:38:01.324Z,94.20
2022-08-10T14:40:38.881Z,94.80
2022-08-10T14:43:28.649Z,95.20
2022-08-10T14:46:08.293Z,91.80
2022-08-10T14:48:48.272Z,91.50
2022-08-10T14:51:20.791Z,87.40
2022-08-10T14:53:59.441Z,90.90
2022-08-10T14:56:35.631Z,90.50
2022-08-10T14:59:09.456Z,84.70
2022-08-10T15:02:37.606Z,81.30
2022-08-10T15:04:37.567Z,75.70
2022-08-10T15:07:21.106Z,83.30
2022-08-10T15:10:00.966Z,81.60
2022-08-10T15:12:35.209Z,84.50
2022-08-10T15:15:07.216Z,73.10
2022-08-10T15:17:41.424Z,73.40
2022-08-10T15:20:31.404Z,62.50
2022-08-10T15:23:07.685Z,62.10
2022-08-10T15:25:57.706Z,53.70
2022-08-10T15:28:39.894Z,54.90
2022-08-10T15:31:22.132Z,53.30
2022-08-10T15:34:11.506Z,49.40
2022-08-10T15:37:36.380Z,43.50
2022-08-10T15:40:21.433Z,46.40
2022-08-10T15:42:53.329Z,47.30
2022-08-10T15:45:23.306Z,25.60
2022-08-10T15:48:03.051Z,19.00
2022-08-10T15:50:45.088Z,17.00
2022-08-10T15:53:24.109Z,11.00
2022-08-10T15:56:04.682Z,9.10
2022-08-10T15:58:39.780Z,1.00
2022-08-10T16:02:13.898Z,1.00
2022-08-10T16:05:02.508Z,1.00
2022-08-10T16:07:49.386Z,1.00
2022-08-10T16:10:28.264Z,1.00
2022-08-10T16:14:00.790Z,1.00
2022-08-10T16:15:59.055Z,1.00
2022-08-10T16:18:29.996Z,1.00
2022-08-10T16:21:01.566Z,1.00
2022-08-10T16:23:39.837Z,1.00
2022-08-10T16:26:14.931Z,1.00
2022-08-10T16:29:01.710Z,1.00
2022-08-10T16:31:33.225Z,1.00
2022-08-10T16:34:07.524Z,1.00
2022-08-10T16:36:54.148Z,1.00
2022-08-10T16:39:58.555Z,1.00
2022-08-10T16:42:24.291Z,1.00
2022-08-10T16:44:58.796Z,1.00
2022-08-10T16:47:29.920Z,1.00
2022-08-10T16:50:02.015Z,1.00
2022-08-10T16:52:33.651Z,1.00
2022-08-10T16:55:24.533Z,1.00
2022-08-10T16:58:09.351Z,1.00
2022-08-10T17:00:40.813Z,1.00
2022-08-10T17:03:22.269Z,1.00
2022-08-10T17:06:11.134Z,1.00
2022-08-10T17:08:50.589Z,1.00
2022-08-10T17:11:21.965Z,1.00
2022-08-10T17:13:50.721Z,1.00
2022-08-10T17:16:19.236Z,1.00
2022-08-10T17:18:49.163Z,1.00
2022-08-10T17:21:23.159Z,1.00
2022-08-10T17:23:55.767Z,1.00
2022-08-10T17:26:37.170Z,1.00
2022-08-10T17:29:58.949Z,1.00
2022-08-10T17:32:44.125Z,1.00
2022-08-10T17:35:23.100Z,1.00
2022-08-10T17:38:13.642Z,1.00
2022-08-10T17:41:11.710Z,1.00
2022-08-10T17:43:58.483Z,1.00
2022-08-10T17:46:36.134Z,1.00
2022-08-10T17:49:11.963Z,1.00
2022-08-10T17:51:43.099Z,1.00
2022-08-10T17:54:40.799Z,1.00
2022-08-10T17:57:16.127Z,1.00
2022-08-10T17:59:46.338Z,1.00
2022-08-10T18:02:28.944Z,1.00
2022-08-10T18:04:59.832Z,1.00
2022-08-10T18:07:51.316Z,1.00
2022-08-10T18:10:22.587Z,1.00
2022-08-10T18:12:55.067Z,1.00
2022-08-10T18:15:28.452Z,1.00
2022-08-10T18:18:04.544Z,1.00
2022-08-10T18:20:38.393Z,1.00
2022-08-10T18:23:09.193Z,1.00
2022-08-10T18:25:44.992Z,1.00
2022-08-10T18:28:18.913Z,1.00
2022-08-10T18:30:51.070Z,1.00
2022-08-10T18:33:25.332Z,1.00
2022-08-10T18:35:55.064Z,1.00
2022-08-10T18:38:25.749Z,1.00
2022-08-10T18:41:09.200Z,1.00
2022-08-10T18:44:07.264Z,1.00
2022-08-10T18:46:47.594Z,1.00
2022-08-10T18:49:41.160Z,1.00
2022-08-10T18:52:11.678Z,1.00
2022-08-10T18:54:50.307Z,1.00
2022-08-10T18:57:54.234Z,1.00
2022-08-10T19:00:27.116Z,1.00
2022-08-10T19:03:16.816Z,1.00
2022-08-10T19:06:10.901Z,1.00
2022-08-10T19:08:49.156Z,1.00
2022-08-10T19:11:49.816Z,1.00
2022-08-10T19:14:26.730Z,1.00
2022-08-10T19:17:17.525Z,1.00
2022-08-10T19:19:51.445Z,1.00
2022-08-10T19:22:32.382Z,1.00
2022-08-10T19:25:08.807Z,1.00
2022-08-10T19:28:03.979Z,1.00
2022-08-10T19:30:46.567Z,1.00
2022-08-10T19:33:46.359Z,1.00
2022-08-10T19:37:06.802Z,1.00
2022-08-10T19:39:58.093Z,1.00
2022-08-10T19:43:09.136Z,1.00
2022-08-10T19:46:02.650Z,1.00
2022-08-10T19:49:09.798Z,1.00
2022-08-10T19:52:00.508Z,1.00
2022-08-10T19:55:15.409Z,1.00
2022-08-10T19:58:05.343Z,1.00
2022-08-10T20:00:59.677Z,1.00
2022-08-10T20:03:47.949Z,1.00
2022-08-10T20:06:34.648Z,1.00
2022-08-10T20:09:16.150Z,1.00
2022-08-10T20:12:07.592Z,1.00
2022-08-10T20:14:54.488Z,1.00
2022-08-10T20:17:57.936Z,1.00
2022-08-10T20:20:34.044Z,1.00
2022-08-10T20:23:34.098Z,1.00
2022-08-10T20:26:09.423Z,1.00
2022-08-10T20:28:48.070Z,1.00
2022-08-10T20:31:24.091Z,1.00
2022-08-10T20:34:06.484Z,1.00
2022-08-10T20:36:40.996Z,1.00
2022-08-10T20:39:40.479Z,1.00
2022-08-10T20:42:44.447Z,1.00
2022-08-10T20:45:46.470Z,1.00
2022-08-10T20:48:47.294Z,1.00
2022-08-10T20:51:20.840Z,1.00
2022-08-10T20:53:54.566Z,1.00
2022-08-10T20:57:00.279Z,1.00
2022-08-10T21:00:03.972Z,1.00
2022-08-10T21:02:50.863Z,1.00
2022-08-10T21:05:33.519Z,1.00
2022-08-10T21:08:35.823Z,1.00
2022-08-10T21:11:08.687Z,1.00
2022-08-10T21:13:55.419Z,1.00
2022-08-10T21:17:00.927Z,1.00
2022-08-10T21:19:57.002Z,1.00
2022-08-10T21:22:39.029Z,1.00
2022-08-10T21:25:20.555Z,1.00
2022-08-10T21:28:15.021Z,1.00
2022-08-10T21:31:01.662Z,1.00
2022-08-10T21:33:50.948Z,1.00
2022-08-10T21:36:25.835Z,1.00
2022-08-10T21:39:42.579Z,1.00
2022-08-10T21:42:30.178Z,1.00
2022-08-10T21:45:58.040Z,1.00
2022-08-10T21:48:59.018Z,1.00
2022-08-10T21:52:10.745Z,1.00
2022-08-10T21:55:16.805Z,1.00
2022-08-10T21:58:27.585Z,1.00
2022-08-10T22:01:31.813Z,1.00
2022-08-10T22:04:27.096Z,1.00
2022-08-10T22:07:16.608Z,1.00
2022-08-10T22:10:06.881Z,1.00
2022-08-10T22:12:59.923Z,1.00
2022-08-10T22:16:09.813Z,1.00
2022-08-10T22:19:14.506Z,1.00
2022-08-10T22:22:38.203Z,1.00
2022-08-10T22:25:53.806Z,1.00
2022-08-10T22:28:40.923Z,1.00
2022-08-10T22:32:13.995Z,1.00
2022-08-10T22:35:09.525Z,1.00
2022-08-10T22:38:16.078Z,1.00
2022-08-10T22:41:06.187Z,1.00
2022-08-10T22:43:55.457Z,1.00
2022-08-10T22:46:46.955Z,1.00
2022-08-10T22:49:23.162Z,1.00
2022-08-10T22:52:03.742Z,1.00
2022-08-10T22:55:07.974Z,1.00
2022-08-10T22:57:55.109Z,1.00
2022-08-10T23:00:31.400Z,1.00
2022-08-10T23:03:26.283Z,1.00
2022-08-10T23:06:09.393Z,1.00
2022-08-10T23:08:51.049Z,1.00
2022-08-10T23:11:27.501Z,1.00
2022-08-10T23:14:08.772Z,1.00
2022-08-10T23:17:17.326Z,1.00
2022-08-10T23:20:09.735Z,1.00
2022-08-10T23:22:43.581Z,1.00
2022-08-10T23:25:34.199Z,1.00
2022-08-10T23:28:12.612Z,1.00
2022-08-10T23:30:45.169Z,1.00
2022-08-10T23:33:18.706Z,1.00
2022-08-10T23:36:33.738Z,1.00
2022-08-10T23:39:27.316Z,1.00
2022-08-10T23:41:54.843Z,1.00
2022-08-10T23:44:24.658Z,1.00
2022-08-10T23:46:54.319Z,1.00
2022-08-10T23:49:24.387Z,1.00
2022-08-10T23:51:55.093Z,1.00
2022-08-10T23:54:25.922Z,1.00
2022-08-10T23:57:00.973Z,1.00
2022-08-10T23:59:33.218Z,1.00
